createdAt,value
2022-08-17T00:00:33.223Z,62.15
2022-08-17T00:01:12.464Z,62.25
2022-08-17T00:02:25.470Z,62.45
2022-08-17T00:03:14.104Z,62.45
2022-08-17T00:04:11.917Z,62.18
2022-08-17T00:05:12.307Z,62.68
2022-08-17T00:06:11.319Z,62.28
2022-08-17T00:07:11.270Z,62.78
2022-08-17T00:08:11.248Z,62.75
2022-08-17T00:09:11.235Z,62.95
2022-08-17T00:10:12.217Z,62.85
2022-08-17T00:11:11.221Z,62.68
2022-08-17T00:12:40.764Z,62.88
2022-08-17T00:13:12.161Z,62.88
2022-08-17T00:14:11.141Z,62.78
2022-08-17T00:15:11.123Z,62.78
2022-08-17T00:16:11.556Z,62.88
2022-08-17T00:17:11.083Z,62.78
2022-08-17T00:19:00.958Z,62.75
2022-08-17T00:19:12.060Z,63.18
2022-08-17T00:20:11.030Z,63.39
2022-08-17T00:21:11.039Z,62.55
2022-08-17T00:22:34.789Z,63.25
2022-08-17T00:23:12.006Z,63.78
2022-08-17T00:24:10.964Z,62.48
2022-08-17T00:25:10.936Z,63.48
2022-08-17T00:26:14.199Z,63.58
2022-08-17T00:27:10.901Z,64.01
2022-08-17T00:28:10.882Z,63.68
2022-08-17T00:29:10.864Z,63.42
2022-08-17T00:30:11.846Z,64.01
2022-08-17T00:31:10.854Z,63.81
2022-08-17T00:33:15.648Z,64.12
2022-08-17T00:33:16.559Z,64.62
2022-08-17T00:34:11.774Z,63.81
2022-08-17T00:35:10.759Z,64.31
2022-08-17T00:36:10.765Z,64.25
2022-08-17T00:37:10.716Z,64.15
2022-08-17T00:38:10.697Z,63.81
2022-08-17T00:39:10.680Z,63.84
2022-08-17T00:40:10.706Z,64.04
2022-08-17T00:41:10.669Z,63.92
2022-08-17T00:42:10.626Z,63.84
2022-08-17T00:43:10.604Z,64.65
2022-08-17T00:44:10.587Z,64.45
2022-08-17T00:45:10.568Z,64.62
2022-08-17T00:46:10.576Z,64.15
2022-08-17T00:47:10.527Z,65.05
2022-08-17T00:48:11.442Z,64.34
2022-08-17T00:49:11.509Z,65.05
2022-08-17T00:50:10.471Z,65.55
2022-08-17T00:51:10.485Z,64.45
2022-08-17T00:52:11.607Z,65.35
2022-08-17T00:53:10.413Z,65.25
2022-08-17T00:54:10.391Z,64.75
2022-08-17T00:55:10.373Z,64.88
2022-08-17T00:56:10.358Z,64.48
2022-08-17T00:57:10.364Z,64.78
2022-08-17T00:58:10.319Z,65.38
2022-08-17T00:59:10.297Z,65.58
2022-08-17T01:00:10.281Z,66.08
2022-08-17T01:01:10.324Z,66.18
2022-08-17T01:02:10.269Z,66.18
2022-08-17T01:03:10.233Z,66.18
2022-08-17T01:04:10.209Z,66.18
2022-08-17T01:05:10.189Z,66.18
2022-08-17T01:06:10.171Z,66.08
2022-08-17T01:07:10.179Z,65.08
2022-08-17T01:08:10.131Z,65.58
2022-08-17T01:09:10.113Z,65.08
2022-08-17T01:10:59.778Z,65.05
2022-08-17T01:11:11.072Z,64.65
2022-08-17T01:12:10.073Z,65.38
2022-08-17T01:13:11.041Z,64.68
2022-08-17T01:14:10.021Z,65.15
2022-08-17T01:15:10.021Z,64.65
2022-08-17T01:16:09.980Z,65.35
2022-08-17T01:17:09.985Z,64.45
2022-08-17T01:18:09.943Z,64.75
2022-08-17T01:19:09.922Z,64.54
2022-08-17T01:20:09.900Z,64.75
2022-08-17T01:21:09.887Z,64.75
2022-08-17T01:22:09.894Z,64.65
2022-08-17T01:23:09.847Z,64.68
2022-08-17T01:24:10.829Z,66.05
2022-08-17T01:25:09.811Z,65.15
2022-08-17T01:26:09.790Z,65.85
2022-08-17T01:27:10.250Z,65.48
2022-08-17T01:28:09.760Z,65.35
2022-08-17T01:29:09.736Z,65.88
2022-08-17T01:30:58.300Z,66.08
2022-08-17T01:31:10.700Z,66.18
2022-08-17T01:32:09.709Z,65.98
2022-08-17T01:33:09.662Z,65.98
2022-08-17T01:34:09.644Z,66.08
2022-08-17T01:35:09.626Z,66.18
2022-08-17T01:36:09.602Z,66.08
2022-08-17T01:37:09.612Z,65.98
2022-08-17T01:38:09.567Z,66.28
2022-08-17T01:39:09.549Z,66.68
2022-08-17T01:40:09.562Z,66.18
2022-08-17T01:41:09.510Z,66.18
2022-08-17T01:42:09.517Z,66.48
2022-08-17T01:43:09.462Z,66.91
2022-08-17T01:44:09.446Z,65.98
2022-08-17T01:45:09.424Z,65.98
2022-08-17T01:46:09.407Z,66.18
2022-08-17T01:47:09.415Z,66.08
2022-08-17T01:48:09.367Z,66.18
2022-08-17T01:49:09.348Z,66.18
2022-08-17T01:50:09.333Z,66.18
2022-08-17T01:51:09.313Z,65.88
2022-08-17T01:52:09.318Z,65.98
2022-08-17T01:53:09.271Z,66.08
2022-08-17T01:54:09.242Z,65.98
2022-08-17T01:55:10.233Z,65.88
2022-08-17T01:56:09.210Z,66.08
2022-08-17T01:57:09.228Z,66.08
2022-08-17T01:58:09.171Z,65.68
2022-08-17T01:59:09.159Z,65.78
2022-08-17T02:00:09.135Z,66.08
2022-08-17T02:01:09.161Z,66.28
2022-08-17T02:02:09.119Z,66.18
2022-08-17T02:03:09.074Z,65.78
2022-08-17T02:04:09.052Z,66.18
2022-08-17T02:05:09.038Z,65.98
2022-08-17T02:06:27.260Z,66.18
2022-08-17T02:07:10.025Z,66.08
2022-08-17T02:08:08.978Z,66.18
2022-08-17T02:09:12.220Z,66.08
2022-08-17T02:10:19.854Z,65.88
2022-08-17T02:11:11.685Z,65.78
2022-08-17T02:12:38.300Z,65.98
2022-08-17T02:13:09.883Z,65.88
2022-08-17T02:14:08.863Z,65.78
2022-08-17T02:15:08.849Z,66.28
2022-08-17T02:16:08.823Z,66.38
2022-08-17T02:17:08.830Z,66.08
2022-08-17T02:18:08.784Z,65.58
2022-08-17T02:19:08.777Z,66.38
2022-08-17T02:20:08.748Z,65.75
2022-08-17T02:21:08.728Z,64.58
2022-08-17T02:22:08.736Z,64.65
2022-08-17T02:23:08.699Z,65.35
2022-08-17T02:24:08.678Z,65.45
2022-08-17T02:25:08.651Z,65.35
2022-08-17T02:26:08.627Z,65.05
2022-08-17T02:27:09.643Z,65.65
2022-08-17T02:28:08.601Z,64.95
2022-08-17T02:29:08.571Z,65.15
2022-08-17T02:31:00.144Z,65.25
2022-08-17T02:31:09.551Z,65.25
2022-08-17T02:32:08.543Z,65.15
2022-08-17T02:33:09.314Z,65.25
2022-08-17T02:34:09.480Z,65.15
2022-08-17T02:35:08.463Z,65.05
2022-08-17T02:36:08.445Z,65.55
2022-08-17T02:37:08.449Z,64.84
2022-08-17T02:38:08.401Z,65.05
2022-08-17T02:39:08.379Z,65.25
2022-08-17T02:40:08.411Z,64.45
2022-08-17T02:41:08.346Z,64.45
2022-08-17T02:42:08.350Z,64.34
2022-08-17T02:43:08.304Z,64.34
2022-08-17T02:44:08.291Z,64.45
2022-08-17T02:45:08.274Z,64.34
2022-08-17T02:46:08.245Z,64.72
2022-08-17T02:47:08.257Z,63.81
2022-08-17T02:48:08.203Z,63.81
2022-08-17T02:49:08.185Z,64.01
2022-08-17T02:50:08.167Z,63.71
2022-08-17T02:51:08.142Z,63.92
2022-08-17T02:52:08.155Z,63.61
2022-08-17T02:53:08.337Z,63.92
2022-08-17T02:54:41.648Z,63.81
2022-08-17T02:55:09.069Z,63.61
2022-08-17T02:56:08.046Z,63.42
2022-08-17T02:57:08.061Z,63.42
2022-08-17T02:58:08.015Z,63.81
2022-08-17T02:59:07.988Z,63.39
2022-08-17T03:00:07.964Z,63.81
2022-08-17T03:01:08.949Z,63.92
2022-08-17T03:02:08.014Z,63.42
2022-08-17T03:03:07.909Z,63.42
2022-08-17T03:04:07.890Z,63.42
2022-08-17T03:05:07.873Z,63.61
2022-08-17T03:06:07.875Z,63.61
2022-08-17T03:07:07.862Z,63.81
2022-08-17T03:08:07.813Z,64.01
2022-08-17T03:09:08.791Z,63.92
2022-08-17T03:10:07.776Z,64.12
2022-08-17T03:11:07.757Z,63.92
2022-08-17T03:12:07.765Z,63.92
2022-08-17T03:13:07.721Z,64.12
2022-08-17T03:14:07.718Z,63.81
2022-08-17T03:15:07.680Z,63.89
2022-08-17T03:16:07.666Z,64.81
2022-08-17T03:17:07.669Z,64.42
2022-08-17T03:18:07.632Z,64.39
2022-08-17T03:19:08.604Z,63.98
2022-08-17T03:20:07.586Z,63.89
2022-08-17T03:21:07.567Z,63.89
2022-08-17T03:22:19.817Z,63.98
2022-08-17T03:23:08.525Z,63.98
2022-08-17T03:24:09.137Z,63.68
2022-08-17T03:25:10.683Z,64.28
2022-08-17T03:26:12.187Z,63.89
2022-08-17T03:27:08.486Z,63.89
2022-08-17T03:28:07.442Z,64.28
2022-08-17T03:29:07.423Z,63.78
2022-08-17T03:30:07.396Z,63.98
2022-08-17T03:31:07.383Z,63.78
2022-08-17T03:32:07.391Z,63.78
2022-08-17T03:33:07.343Z,64.09
2022-08-17T03:34:07.325Z,63.98
2022-08-17T03:35:07.305Z,64.39
2022-08-17T03:36:07.285Z,64.39
2022-08-17T03:37:07.296Z,64.39
2022-08-17T03:38:07.249Z,63.89
2022-08-17T03:39:07.231Z,64.69
2022-08-17T03:40:07.277Z,64.72
2022-08-17T03:41:07.192Z,64.62
2022-08-17T03:42:07.234Z,64.72
2022-08-17T03:43:08.158Z,64.42
2022-08-17T03:44:07.142Z,65.01
2022-08-17T03:45:07.120Z,64.62
2022-08-17T03:46:28.610Z,65.12
2022-08-17T03:47:07.118Z,65.22
2022-08-17T03:48:07.064Z,64.42
2022-08-17T03:49:09.904Z,64.51
2022-08-17T03:50:10.351Z,64.62
2022-08-17T03:51:12.723Z,64.42
2022-08-17T03:52:07.020Z,64.31
2022-08-17T03:53:06.971Z,65.01
2022-08-17T03:54:07.744Z,64.42
2022-08-17T03:55:06.934Z,64.42
2022-08-17T03:56:06.912Z,64.42
2022-08-17T03:57:06.927Z,64.48
2022-08-17T03:58:06.885Z,64.69
2022-08-17T03:59:06.858Z,64.18
2022-08-17T04:00:07.845Z,63.68
2022-08-17T04:01:06.909Z,64.18
2022-08-17T04:02:06.829Z,64.18
2022-08-17T04:03:06.849Z,63.89
2022-08-17T04:04:06.898Z,63.89
2022-08-17T04:05:06.747Z,63.78
2022-08-17T04:06:06.727Z,63.89
2022-08-17T04:07:06.734Z,63.98
2022-08-17T04:08:06.694Z,63.78
2022-08-17T04:09:06.670Z,63.89
2022-08-17T04:10:06.669Z,63.89
2022-08-17T04:11:06.638Z,63.98
2022-08-17T04:12:06.649Z,63.89
2022-08-17T04:13:06.625Z,63.78
2022-08-17T04:14:06.581Z,63.78
2022-08-17T04:15:06.563Z,63.98
2022-08-17T04:16:06.545Z,63.89
2022-08-17T04:17:06.551Z,63.68
2022-08-17T04:18:07.546Z,63.39
2022-08-17T04:19:07.485Z,63.39
2022-08-17T04:20:06.475Z,63.58
2022-08-17T04:21:06.450Z,63.06
2022-08-17T04:22:06.461Z,62.35
2022-08-17T04:23:06.416Z,63.35
2022-08-17T04:24:06.395Z,62.62
2022-08-17T04:25:06.384Z,62.42
2022-08-17T04:26:06.359Z,62.39
2022-08-17T04:27:06.364Z,61.89
2022-08-17T04:28:07.709Z,61.36
2022-08-17T04:29:07.303Z,60.44
2022-08-17T04:30:06.289Z,60.11
2022-08-17T04:31:06.266Z,60.28
2022-08-17T04:32:06.272Z,59.28
2022-08-17T04:33:07.226Z,59.18
2022-08-17T04:34:07.211Z,59.21
2022-08-17T04:35:06.192Z,59.28
2022-08-17T04:36:06.175Z,59.58
2022-08-17T04:37:06.186Z,59.08
2022-08-17T04:38:06.140Z,58.98
2022-08-17T04:39:06.119Z,58.78
2022-08-17T04:40:06.147Z,58.85
2022-08-17T04:41:06.085Z,58.85
2022-08-17T04:42:06.091Z,59.05
2022-08-17T04:43:06.045Z,59.05
2022-08-17T04:44:06.026Z,58.53
2022-08-17T04:45:06.012Z,59.22
2022-08-17T04:46:05.996Z,57.63
2022-08-17T04:47:05.998Z,57.60
2022-08-17T04:48:05.954Z,58.00
2022-08-17T04:49:05.936Z,57.80
2022-08-17T04:50:05.917Z,57.40
2022-08-17T04:51:05.903Z,56.60
2022-08-17T04:52:05.965Z,56.70
2022-08-17T04:53:05.859Z,56.98
2022-08-17T04:54:05.841Z,56.68
2022-08-17T04:55:05.821Z,56.05
2022-08-17T04:56:05.802Z,56.45
2022-08-17T04:57:05.809Z,55.23
2022-08-17T04:58:05.760Z,54.71
2022-08-17T04:59:05.748Z,54.33
2022-08-17T05:00:05.725Z,53.44
2022-08-17T05:01:05.761Z,52.22
2022-08-17T05:02:05.715Z,52.72
2022-08-17T05:03:05.671Z,52.29
2022-08-17T05:04:21.078Z,52.07
2022-08-17T05:05:06.638Z,51.54
2022-08-17T05:06:05.616Z,50.18
2022-08-17T05:07:05.632Z,49.05
2022-08-17T05:08:05.577Z,46.93
2022-08-17T05:09:05.562Z,46.69
2022-08-17T05:10:05.542Z,46.54
2022-08-17T05:11:05.522Z,45.56
2022-08-17T05:12:05.537Z,45.53
2022-08-17T05:13:05.487Z,46.18
2022-08-17T05:14:05.468Z,46.47
2022-08-17T05:15:05.449Z,44.11
2022-08-17T05:16:05.431Z,44.70
2022-08-17T05:17:09.363Z,45.63
2022-08-17T05:18:06.422Z,44.94
2022-08-17T05:19:05.376Z,44.84
2022-08-17T05:20:05.362Z,44.43
2022-08-17T05:21:05.344Z,45.67
2022-08-17T05:22:05.326Z,44.24
2022-08-17T05:23:05.345Z,43.75
2022-08-17T05:24:06.026Z,44.05
2022-08-17T05:25:06.270Z,43.85
2022-08-17T05:26:07.039Z,43.53
2022-08-17T05:27:06.823Z,43.63
2022-08-17T05:28:05.217Z,44.95
2022-08-17T05:29:05.227Z,43.08
2022-08-17T05:30:05.185Z,44.17
2022-08-17T05:31:05.165Z,44.73
2022-08-17T05:32:05.146Z,43.33
2022-08-17T05:33:06.151Z,41.33
2022-08-17T05:34:05.104Z,41.63
2022-08-17T05:35:05.098Z,40.80
2022-08-17T05:36:05.068Z,41.37
2022-08-17T05:37:05.051Z,41.49
2022-08-17T05:38:05.064Z,42.51
2022-08-17T05:39:05.015Z,43.04
2022-08-17T05:40:05.049Z,44.40
2022-08-17T05:41:04.977Z,46.15
2022-08-17T05:42:04.956Z,46.69
2022-08-17T05:43:04.966Z,48.14
2022-08-17T05:44:05.586Z,49.42
2022-08-17T05:45:04.906Z,49.66
2022-08-17T05:46:04.884Z,49.66
2022-08-17T05:47:04.870Z,51.28
2022-08-17T05:48:05.874Z,52.09
2022-08-17T05:49:04.833Z,52.29
2022-08-17T05:50:09.779Z,51.10
2022-08-17T05:51:05.798Z,52.09
2022-08-17T05:52:04.781Z,52.59
2022-08-17T05:53:04.791Z,52.76
2022-08-17T05:54:04.739Z,52.66
2022-08-17T05:55:04.722Z,52.19
2022-08-17T05:56:04.710Z,52.09
2022-08-17T05:57:04.684Z,51.05
2022-08-17T05:58:04.692Z,51.94
2022-08-17T05:59:05.393Z,51.00
2022-08-17T06:00:04.629Z,49.57
2022-08-17T06:01:04.672Z,49.27
2022-08-17T06:02:05.434Z,50.85
2022-08-17T06:03:04.605Z,48.09
2022-08-17T06:04:04.562Z,47.85
2022-08-17T06:05:04.541Z,46.86
2022-08-17T06:06:04.527Z,49.37
2022-08-17T06:07:04.508Z,48.83
2022-08-17T06:08:04.519Z,50.09
2022-08-17T06:09:04.480Z,49.57
2022-08-17T06:10:05.386Z,47.50
2022-08-17T06:11:05.423Z,50.38
2022-08-17T06:12:04.421Z,49.57
2022-08-17T06:13:04.430Z,48.61
2022-08-17T06:14:04.459Z,44.80
2022-08-17T06:15:04.368Z,45.17
2022-08-17T06:16:04.354Z,46.10
2022-08-17T06:17:04.336Z,46.32
2022-08-17T06:18:04.345Z,47.53
2022-08-17T06:19:04.303Z,46.34
2022-08-17T06:20:04.287Z,46.12
2022-08-17T06:21:04.273Z,47.23
2022-08-17T06:22:04.254Z,48.39
2022-08-17T06:23:04.267Z,48.49
2022-08-17T06:24:04.221Z,47.69
2022-08-17T06:25:04.202Z,48.27
2022-08-17T06:26:05.189Z,48.07
2022-08-17T06:27:04.167Z,48.56
2022-08-17T06:28:04.173Z,47.97
2022-08-17T06:29:04.133Z,45.95
2022-08-17T06:30:04.120Z,45.68
2022-08-17T06:31:04.100Z,44.68
2022-08-17T06:32:04.084Z,46.33
2022-08-17T06:33:04.100Z,44.83
2022-08-17T06:34:04.037Z,43.71
2022-08-17T06:35:05.026Z,43.41
2022-08-17T06:36:07.974Z,42.98
2022-08-17T06:37:04.994Z,43.49
2022-08-17T06:38:04.031Z,43.19
2022-08-17T06:39:03.962Z,43.19
2022-08-17T06:40:04.037Z,44.59
2022-08-17T06:41:03.924Z,44.06
2022-08-17T06:42:03.908Z,43.14
2022-08-17T06:43:07.261Z,43.66
2022-08-17T06:44:04.872Z,41.15
2022-08-17T06:45:03.854Z,41.23
2022-08-17T06:46:04.098Z,40.60
2022-08-17T06:47:03.821Z,38.82
2022-08-17T06:48:03.829Z,39.41
2022-08-17T06:49:03.796Z,38.59
2022-08-17T06:50:03.769Z,39.04
2022-08-17T06:51:03.748Z,38.96
2022-08-17T06:52:03.735Z,38.75
2022-08-17T06:53:03.748Z,36.43
2022-08-17T06:54:03.703Z,35.41
2022-08-17T06:55:03.688Z,34.97
2022-08-17T06:56:03.673Z,34.08
2022-08-17T06:57:03.642Z,34.17
2022-08-17T06:58:05.867Z,34.08
2022-08-17T06:59:04.623Z,33.69
2022-08-17T07:00:03.677Z,35.21
2022-08-17T07:01:03.625Z,33.42
2022-08-17T07:02:03.583Z,32.82
2022-08-17T07:03:03.867Z,32.71
2022-08-17T07:04:05.064Z,31.73
2022-08-17T07:05:04.543Z,31.43
2022-08-17T07:06:03.519Z,32.49
2022-08-17T07:07:03.497Z,32.91
2022-08-17T07:08:03.543Z,33.84
2022-08-17T07:09:03.474Z,33.98
2022-08-17T07:10:03.451Z,33.56
2022-08-17T07:11:04.448Z,35.53
2022-08-17T07:12:03.427Z,35.53
2022-08-17T07:13:03.447Z,35.33
2022-08-17T07:14:03.396Z,34.76
2022-08-17T07:15:03.380Z,37.77
2022-08-17T07:16:03.364Z,37.02
2022-08-17T07:17:03.353Z,41.33
2022-08-17T07:18:03.518Z,41.29
2022-08-17T07:19:03.321Z,42.72
2022-08-17T07:20:03.298Z,44.22
2022-08-17T07:21:03.283Z,42.96
2022-08-17T07:22:03.269Z,43.10
2022-08-17T07:23:03.276Z,43.26
2022-08-17T07:24:03.238Z,42.72
2022-08-17T07:25:03.218Z,43.08
2022-08-17T07:26:04.199Z,43.49
2022-08-17T07:27:03.211Z,43.49
2022-08-17T07:28:06.086Z,41.29
2022-08-17T07:29:03.155Z,41.47
2022-08-17T07:30:08.035Z,42.94
2022-08-17T07:31:05.114Z,42.84
2022-08-17T07:32:03.101Z,42.88
2022-08-17T07:33:03.121Z,40.84
2022-08-17T07:34:03.075Z,38.81
2022-08-17T07:35:03.058Z,37.04
2022-08-17T07:36:03.062Z,37.25
2022-08-17T07:37:03.950Z,37.45
2022-08-17T07:38:03.033Z,36.49
2022-08-17T07:39:02.989Z,36.82
2022-08-17T07:40:16.252Z,37.29
2022-08-17T07:41:03.953Z,37.33
2022-08-17T07:42:02.953Z,39.76
2022-08-17T07:43:03.507Z,35.98
2022-08-17T07:44:02.908Z,36.88
2022-08-17T07:45:02.895Z,37.01
2022-08-17T07:46:02.880Z,36.31
2022-08-17T07:47:02.866Z,36.37
2022-08-17T07:48:02.879Z,35.71
2022-08-17T07:49:02.833Z,34.14
2022-08-17T07:50:02.817Z,35.81
2022-08-17T07:51:02.799Z,35.70
2022-08-17T07:52:48.436Z,35.98
2022-08-17T07:53:03.791Z,37.11
2022-08-17T07:54:14.014Z,37.55
2022-08-17T07:55:04.740Z,39.22
2022-08-17T07:56:02.724Z,38.92
2022-08-17T07:57:02.708Z,38.34
2022-08-17T07:58:02.715Z,39.10
2022-08-17T07:59:02.677Z,39.80
2022-08-17T08:00:03.060Z,39.20
2022-08-17T08:01:02.649Z,36.54
2022-08-17T08:02:02.666Z,38.32
2022-08-17T08:03:02.640Z,38.61
2022-08-17T08:04:02.593Z,36.88
2022-08-17T08:05:02.715Z,37.45
2022-08-17T08:06:02.563Z,36.88
2022-08-17T08:07:02.551Z,37.77
2022-08-17T08:08:02.561Z,36.55
2022-08-17T08:09:03.485Z,33.80
2022-08-17T08:10:02.513Z,33.75
2022-08-17T08:11:02.492Z,33.06
2022-08-17T08:12:02.475Z,32.73
2022-08-17T08:13:02.489Z,33.44
2022-08-17T08:14:02.443Z,34.72
2022-08-17T08:15:02.429Z,33.56
2022-08-17T08:16:02.414Z,32.67
2022-08-17T08:17:02.398Z,34.20
2022-08-17T08:18:02.407Z,33.11
2022-08-17T08:19:02.366Z,33.20
2022-08-17T08:20:37.623Z,33.11
2022-08-17T08:21:03.338Z,33.31
2022-08-17T08:22:02.327Z,33.44
2022-08-17T08:23:02.332Z,34.08
2022-08-17T08:24:02.292Z,35.03
2022-08-17T08:25:02.942Z,36.12
2022-08-17T08:26:02.262Z,35.96
2022-08-17T08:27:02.243Z,35.88
2022-08-17T08:28:02.264Z,36.78
2022-08-17T08:29:02.216Z,38.26
2022-08-17T08:30:02.196Z,36.49
2022-08-17T08:31:02.181Z,36.49
2022-08-17T08:32:02.166Z,38.09
2022-08-17T08:33:02.172Z,37.99
2022-08-17T08:34:02.131Z,37.87
2022-08-17T08:35:03.526Z,39.96
2022-08-17T08:36:03.097Z,40.29
2022-08-17T08:37:16.542Z,42.76
2022-08-17T08:38:03.088Z,41.49
2022-08-17T08:39:02.050Z,39.80
2022-08-17T08:40:02.125Z,40.80
2022-08-17T08:41:02.016Z,41.51
2022-08-17T08:42:01.999Z,42.88
2022-08-17T08:43:02.008Z,41.80
2022-08-17T08:44:01.965Z,41.90
2022-08-17T08:45:04.612Z,41.21
2022-08-17T08:46:01.937Z,41.31
2022-08-17T08:47:01.914Z,41.63
2022-08-17T08:48:05.564Z,40.92
2022-08-17T08:49:10.110Z,41.11
2022-08-17T08:50:05.318Z,41.08
2022-08-17T08:51:03.852Z,39.80
2022-08-17T08:52:01.836Z,39.27
2022-08-17T08:53:01.991Z,39.39
2022-08-17T08:54:01.800Z,39.59
2022-08-17T08:55:01.784Z,39.39
2022-08-17T08:56:01.764Z,38.82
2022-08-17T08:57:23.131Z,40.09
2022-08-17T08:58:03.763Z,39.09
2022-08-17T08:59:01.716Z,38.53
2022-08-17T09:00:01.700Z,40.19
2022-08-17T09:01:01.724Z,39.31
2022-08-17T09:02:01.668Z,39.88
2022-08-17T09:03:01.678Z,38.72
2022-08-17T09:04:19.570Z,39.49
2022-08-17T09:05:14.403Z,39.80
2022-08-17T09:06:03.600Z,40.19
2022-08-17T09:07:01.581Z,39.49
2022-08-17T09:08:01.593Z,39.51
2022-08-17T09:09:01.547Z,39.69
2022-08-17T09:10:01.533Z,39.90
2022-08-17T09:11:01.512Z,38.72
2022-08-17T09:12:03.643Z,41.11
2022-08-17T09:13:09.381Z,41.53
2022-08-17T09:14:03.460Z,41.14
2022-08-17T09:15:01.485Z,40.33
2022-08-17T09:16:01.428Z,40.64
2022-08-17T09:17:01.513Z,41.21
2022-08-17T09:18:36.407Z,38.93
2022-08-17T09:19:04.694Z,39.01
2022-08-17T09:20:02.363Z,39.14
2022-08-17T09:21:01.340Z,39.84
2022-08-17T09:22:01.323Z,40.92
2022-08-17T09:23:01.325Z,41.02
2022-08-17T09:24:02.290Z,41.11
2022-08-17T09:25:01.274Z,41.06
2022-08-17T09:26:01.863Z,42.33
2022-08-17T09:27:01.237Z,41.53
2022-08-17T09:28:01.250Z,41.06
2022-08-17T09:29:01.204Z,43.24
2022-08-17T09:30:01.191Z,42.65
2022-08-17T09:31:01.169Z,41.39
2022-08-17T09:32:01.165Z,43.79
2022-08-17T09:33:01.162Z,43.54
2022-08-17T09:34:01.117Z,43.37
2022-08-17T09:35:01.138Z,43.86
2022-08-17T09:36:01.096Z,43.76
2022-08-17T09:37:01.859Z,44.37
2022-08-17T09:38:01.077Z,44.07
2022-08-17T09:39:02.031Z,45.08
2022-08-17T09:40:01.067Z,43.90
2022-08-17T09:41:00.999Z,43.82
2022-08-17T09:42:00.982Z,44.54
2022-08-17T09:43:00.993Z,45.20
2022-08-17T09:44:00.946Z,44.64
2022-08-17T09:45:00.930Z,44.43
2022-08-17T09:46:00.914Z,44.02
2022-08-17T09:47:00.935Z,44.71
2022-08-17T09:48:00.904Z,45.78
2022-08-17T09:49:00.864Z,43.19
2022-08-17T09:50:00.846Z,43.37
2022-08-17T09:51:06.011Z,43.17
2022-08-17T09:52:02.466Z,43.27
2022-08-17T09:53:00.817Z,42.87
2022-08-17T09:54:21.131Z,43.86
2022-08-17T09:55:02.760Z,43.74
2022-08-17T09:56:00.749Z,42.97
2022-08-17T09:57:25.702Z,43.56
2022-08-17T09:58:02.734Z,43.03
2022-08-17T09:59:01.857Z,42.93
2022-08-17T10:00:00.670Z,42.93
2022-08-17T10:01:00.674Z,42.44
2022-08-17T10:02:00.637Z,43.23
2022-08-17T10:03:01.132Z,42.76
2022-08-17T10:04:00.816Z,42.46
2022-08-17T10:05:00.586Z,42.55
2022-08-17T10:06:00.569Z,42.55
2022-08-17T10:07:00.546Z,42.65
2022-08-17T10:08:00.970Z,43.24
2022-08-17T10:09:00.508Z,42.54
2022-08-17T10:10:00.492Z,41.85
2022-08-17T10:11:00.475Z,41.35
2022-08-17T10:12:00.459Z,42.44
2022-08-17T10:13:00.471Z,41.75
2022-08-17T10:14:00.422Z,41.96
2022-08-17T10:15:07.952Z,43.07
2022-08-17T10:16:01.384Z,42.97
2022-08-17T10:17:00.367Z,43.37
2022-08-17T10:18:00.349Z,42.87
2022-08-17T10:19:00.962Z,43.46
2022-08-17T10:20:00.313Z,42.85
2022-08-17T10:21:00.297Z,43.62
2022-08-17T10:22:01.424Z,42.73
2022-08-17T10:23:01.257Z,43.10
2022-08-17T10:24:00.269Z,43.57
2022-08-17T10:25:21.010Z,41.31
2022-08-17T10:26:01.212Z,43.48
2022-08-17T10:27:00.194Z,41.80
2022-08-17T10:28:00.172Z,41.69
2022-08-17T10:29:00.181Z,40.29
2022-08-17T10:30:00.136Z,41.25
2022-08-17T10:31:23.405Z,41.06
2022-08-17T10:32:02.100Z,41.64
2022-08-17T10:33:00.079Z,40.17
2022-08-17T10:34:00.106Z,40.35
2022-08-17T10:35:00.043Z,41.63
2022-08-17T10:36:00.025Z,40.41
2022-08-17T10:37:00.005Z,41.51
2022-08-17T10:37:59.989Z,41.80
2022-08-17T10:39:00.007Z,41.25
2022-08-17T10:39:59.989Z,41.53
2022-08-17T10:40:59.936Z,40.29
2022-08-17T10:41:59.918Z,41.56
2022-08-17T10:42:59.899Z,41.56
2022-08-17T10:44:38.236Z,42.57
2022-08-17T10:45:00.866Z,43.26
2022-08-17T10:46:10.600Z,43.33
2022-08-17T10:47:00.829Z,42.75
2022-08-17T10:48:04.796Z,41.64
2022-08-17T10:49:01.845Z,41.25
2022-08-17T10:49:59.771Z,42.35
2022-08-17T10:50:59.759Z,42.67
2022-08-17T10:51:59.739Z,42.65
2022-08-17T10:52:59.717Z,42.55
2022-08-17T10:53:59.729Z,41.86
2022-08-17T10:54:59.684Z,43.26
2022-08-17T10:55:59.662Z,42.86
2022-08-17T10:56:59.648Z,42.94
2022-08-17T10:57:59.627Z,42.85
2022-08-17T10:58:59.636Z,41.06
2022-08-17T10:59:59.591Z,41.64
2022-08-17T11:00:59.669Z,42.35
2022-08-17T11:01:59.552Z,43.16
2022-08-17T11:02:59.535Z,42.47
2022-08-17T11:03:59.592Z,41.19
2022-08-17T11:04:59.500Z,40.31
2022-08-17T11:05:59.480Z,41.17
2022-08-17T11:06:59.466Z,40.17
2022-08-17T11:07:59.443Z,41.37
2022-08-17T11:08:59.457Z,41.16
2022-08-17T11:09:59.412Z,42.28
2022-08-17T11:10:59.396Z,43.93
2022-08-17T11:11:59.378Z,42.65
2022-08-17T11:12:59.368Z,42.55
2022-08-17T11:13:59.363Z,42.24
2022-08-17T11:14:59.959Z,42.24
2022-08-17T11:16:02.362Z,42.24
2022-08-17T11:17:01.286Z,42.21
2022-08-17T11:17:59.265Z,43.10
2022-08-17T11:18:59.273Z,43.61
2022-08-17T11:19:59.230Z,43.00
2022-08-17T11:20:59.210Z,43.00
2022-08-17T11:21:59.195Z,44.91
2022-08-17T11:22:59.174Z,43.10
2022-08-17T11:23:59.190Z,44.49
2022-08-17T11:24:59.142Z,43.49
2022-08-17T11:25:59.107Z,42.90
2022-08-17T11:26:59.111Z,44.01
2022-08-17T11:27:59.086Z,43.90
2022-08-17T11:28:59.092Z,44.47
2022-08-17T11:30:02.099Z,42.90
2022-08-17T11:31:00.198Z,43.79
2022-08-17T11:31:59.009Z,43.12
2022-08-17T11:32:58.988Z,42.92
2022-08-17T11:33:58.992Z,42.98
2022-08-17T11:34:58.950Z,42.39
2022-08-17T11:35:58.931Z,43.49
2022-08-17T11:36:59.839Z,42.58
2022-08-17T11:37:58.896Z,41.51
2022-08-17T11:38:58.903Z,42.29
2022-08-17T11:39:58.898Z,42.19
2022-08-17T11:40:58.840Z,41.80
2022-08-17T11:41:58.825Z,42.49
2022-08-17T11:42:58.808Z,43.19
2022-08-17T11:43:58.816Z,42.92
2022-08-17T11:44:58.777Z,41.35
2022-08-17T11:45:58.755Z,41.74
2022-08-17T11:46:59.301Z,42.33
2022-08-17T11:48:26.080Z,42.35
2022-08-17T11:49:00.730Z,42.75
2022-08-17T11:49:58.686Z,42.91
2022-08-17T11:50:58.672Z,43.10
2022-08-17T11:51:58.643Z,43.91
2022-08-17T11:52:58.630Z,42.83
2022-08-17T11:54:21.420Z,43.15
2022-08-17T11:55:24.062Z,43.52
2022-08-17T11:56:00.586Z,43.82
2022-08-17T11:56:58.560Z,43.34
2022-08-17T11:57:58.540Z,43.15
2022-08-17T11:58:58.559Z,43.24
2022-08-17T11:59:59.469Z,44.03
2022-08-17T12:00:58.491Z,44.43
2022-08-17T12:01:58.468Z,44.15
2022-08-17T12:02:58.458Z,44.55
2022-08-17T12:03:58.461Z,43.96
2022-08-17T12:04:58.407Z,44.65
2022-08-17T12:05:59.384Z,45.43
2022-08-17T12:06:58.382Z,44.47
2022-08-17T12:07:58.357Z,44.67
2022-08-17T12:08:58.365Z,44.57
2022-08-17T12:09:58.320Z,44.49
2022-08-17T12:10:58.306Z,45.48
2022-08-17T12:12:12.876Z,44.91
2022-08-17T12:12:59.266Z,45.79
2022-08-17T12:13:58.300Z,45.82
2022-08-17T12:15:10.234Z,46.31
2022-08-17T12:16:00.214Z,46.41
2022-08-17T12:16:58.198Z,47.60
2022-08-17T12:17:58.555Z,47.60
2022-08-17T12:18:58.195Z,46.70
2022-08-17T12:19:58.145Z,47.79
2022-08-17T12:20:58.127Z,47.20
2022-08-17T12:21:58.113Z,48.02
2022-08-17T12:22:58.106Z,49.02
2022-08-17T12:23:58.101Z,49.94
2022-08-17T12:24:58.057Z,49.15
2022-08-17T12:25:58.037Z,49.64
2022-08-17T12:26:58.019Z,49.44
2022-08-17T12:28:06.201Z,49.74
2022-08-17T12:28:59.747Z,51.10
2022-08-17T12:29:57.964Z,50.93
2022-08-17T12:30:57.945Z,51.03
2022-08-17T12:31:57.927Z,52.51
2022-08-17T12:32:57.912Z,51.32
2022-08-17T12:33:57.916Z,52.54
2022-08-17T12:34:58.445Z,51.94
2022-08-17T12:35:59.535Z,53.03
2022-08-17T12:36:59.835Z,51.35
2022-08-17T12:37:57.819Z,53.33
2022-08-17T12:38:57.832Z,52.76
2022-08-17T12:39:57.836Z,53.25
2022-08-17T12:40:58.078Z,52.07
2022-08-17T12:42:02.090Z,52.73
2022-08-17T12:42:58.735Z,52.26
2022-08-17T12:43:57.738Z,53.95
2022-08-17T12:44:57.694Z,52.96
2022-08-17T12:45:57.670Z,53.06
2022-08-17T12:46:57.658Z,50.98
2022-08-17T12:47:57.639Z,51.94
2022-08-17T12:48:59.972Z,50.88
2022-08-17T12:49:57.606Z,50.88
2022-08-17T12:50:57.587Z,51.18
2022-08-17T12:51:57.570Z,50.76